createdAt,value
2023-08-28T00:01:32.441Z,12.71
2023-08-28T00:04:01.007Z,12.62
2023-08-28T00:06:29.338Z,12.59
2023-08-28T00:08:57.713Z,12.55
2023-08-28T00:11:26.137Z,12.52
2023-08-28T00:13:54.527Z,12.45
2023-08-28T00:16:23.045Z,12.38
2023-08-28T00:18:51.378Z,12.31
2023-08-28T00:21:20.001Z,12.28
2023-08-28T00:23:48.161Z,12.24
2023-08-28T00:26:16.597Z,12.17
2023-08-28T00:28:44.999Z,12.11
2023-08-28T00:31:13.505Z,12.08
2023-08-28T00:33:41.820Z,12.05
2023-08-28T00:36:10.261Z,12.04
2023-08-28T00:38:38.710Z,12.00
2023-08-28T00:41:07.094Z,11.94
2023-08-28T00:43:35.562Z,11.92
2023-08-28T00:46:05.927Z,11.88
2023-08-28T00:48:37.294Z,11.83
2023-08-28T00:51:08.378Z,11.78
2023-08-28T00:53:38.761Z,11.73
2023-08-28T00:56:09.218Z,11.69
2023-08-28T00:58:41.172Z,11.63
2023-08-28T01:01:11.675Z,11.61
2023-08-28T01:03:41.830Z,11.56
2023-08-28T01:06:51.603Z,11.48
2023-08-28T01:09:51.307Z,11.46
2023-08-28T01:12:28.119Z,11.38
2023-08-28T01:15:21.866Z,11.33
2023-08-28T01:18:05.724Z,11.28
2023-08-28T01:20:38.182Z,11.23
2023-08-28T01:23:28.968Z,11.19
2023-08-28T01:26:00.778Z,11.15
2023-08-28T01:28:31.473Z,11.11
2023-08-28T01:31:06.124Z,11.06
2023-08-28T01:33:37.691Z,11.00
2023-08-28T01:36:31.865Z,10.93
2023-08-28T01:39:16.629Z,10.90
2023-08-28T01:41:49.694Z,10.84
2023-08-28T01:44:23.915Z,10.75
2023-08-28T01:46:54.725Z,10.70
2023-08-28T01:49:34.514Z,10.64
2023-08-28T01:52:05.245Z,10.60
2023-08-28T01:54:35.480Z,10.57
2023-08-28T01:57:06.313Z,10.53
2023-08-28T01:59:36.842Z,10.48
2023-08-28T02:02:07.017Z,10.41
2023-08-28T02:04:37.175Z,10.34
2023-08-28T02:07:08.688Z,10.29
2023-08-28T02:09:38.830Z,10.24
2023-08-28T02:12:09.218Z,10.17
2023-08-28T02:14:39.376Z,10.13
2023-08-28T02:17:09.571Z,10.08
2023-08-28T02:19:39.867Z,10.02
2023-08-28T02:22:08.194Z,9.99
2023-08-28T02:24:36.608Z,9.94
2023-08-28T02:27:05.492Z,9.92
2023-08-28T02:29:33.553Z,9.88
2023-08-28T02:32:01.932Z,9.84
2023-08-28T02:34:30.398Z,9.83
2023-08-28T02:36:58.826Z,9.79
2023-08-28T02:39:27.221Z,9.76
2023-08-28T02:41:55.658Z,9.74
2023-08-28T02:44:24.151Z,9.69
2023-08-28T02:46:52.792Z,9.65
2023-08-28T02:49:21.019Z,9.63
2023-08-28T02:51:50.136Z,9.60
2023-08-28T02:54:17.831Z,9.58
2023-08-28T02:56:46.279Z,9.58
2023-08-28T02:59:14.764Z,9.56
2023-08-28T03:01:43.182Z,9.50
2023-08-28T03:04:11.621Z,9.44
2023-08-28T03:06:41.064Z,9.34
2023-08-28T03:09:09.735Z,9.30
2023-08-28T03:11:37.262Z,9.28
2023-08-28T03:14:05.766Z,9.31
2023-08-28T03:16:34.192Z,9.23
2023-08-28T03:19:02.600Z,9.11
2023-08-28T03:21:30.707Z,9.03
2023-08-28T03:23:59.067Z,8.98
2023-08-28T03:26:29.796Z,8.96
2023-08-28T03:28:58.965Z,8.94
2023-08-28T03:31:30.899Z,8.94
2023-08-28T03:34:01.568Z,8.93
2023-08-28T03:36:31.909Z,8.92
2023-08-28T03:39:02.082Z,8.90
2023-08-28T03:41:32.231Z,8.92
2023-08-28T03:44:00.677Z,8.92
2023-08-28T03:46:29.089Z,8.91
2023-08-28T03:48:57.415Z,8.89
2023-08-28T03:51:25.836Z,8.89
2023-08-28T03:53:54.273Z,8.92
2023-08-28T03:56:23.971Z,8.95
2023-08-28T03:58:51.097Z,8.97
2023-08-28T04:01:19.632Z,8.99
2023-08-28T04:03:48.014Z,9.00
2023-08-28T04:06:16.385Z,8.99
2023-08-28T04:08:44.781Z,9.02
2023-08-28T04:11:13.221Z,9.01
2023-08-28T04:13:42.897Z,9.01
2023-08-28T04:16:13.099Z,9.01
2023-08-28T04:18:41.466Z,9.02
2023-08-28T04:21:09.916Z,9.06
2023-08-28T04:23:38.245Z,9.04
2023-08-28T04:26:06.693Z,9.06
2023-08-28T04:28:35.182Z,9.09
2023-08-28T04:31:03.613Z,9.13
2023-08-28T04:33:32.191Z,9.16
2023-08-28T04:36:02.715Z,9.17
2023-08-28T04:38:33.258Z,9.23
2023-08-28T04:41:04.627Z,9.24
2023-08-28T04:43:34.824Z,9.28
2023-08-28T04:46:06.774Z,9.32
2023-08-28T04:48:36.906Z,9.40
2023-08-28T04:51:07.520Z,9.46
2023-08-28T04:53:37.610Z,9.51
2023-08-28T04:56:07.777Z,9.55
2023-08-28T04:58:38.047Z,9.62
2023-08-28T05:01:08.242Z,9.66
2023-08-28T05:03:39.589Z,9.68
2023-08-28T05:06:09.781Z,9.71
2023-08-28T05:08:39.950Z,9.72
2023-08-28T05:11:13.449Z,9.74
2023-08-28T05:13:43.716Z,9.73
2023-08-28T05:16:13.983Z,9.73
2023-08-28T05:18:44.307Z,9.77
2023-08-28T05:21:14.505Z,9.85
2023-08-28T05:23:44.626Z,9.92
2023-08-28T05:26:13.138Z,9.98
2023-08-28T05:28:41.522Z,10.15
2023-08-28T05:31:09.994Z,10.29
2023-08-28T05:33:38.440Z,10.41
2023-08-28T05:36:06.888Z,10.46
2023-08-28T05:38:35.400Z,10.60
2023-08-28T05:41:04.728Z,10.76
2023-08-28T05:43:31.972Z,10.83
2023-08-28T05:46:00.349Z,10.96
2023-08-28T05:48:28.857Z,11.06
2023-08-28T05:50:57.198Z,11.09
2023-08-28T05:53:25.613Z,11.11
2023-08-28T05:55:54.045Z,11.14
2023-08-28T05:58:22.442Z,11.22
2023-08-28T06:00:50.884Z,11.29
2023-08-28T06:03:19.974Z,11.45
2023-08-28T06:05:47.826Z,11.51
2023-08-28T06:08:18.118Z,11.79
2023-08-28T06:10:47.527Z,11.97
2023-08-28T06:13:16.519Z,12.10
2023-08-28T06:15:44.280Z,12.22
2023-08-28T06:18:12.856Z,12.28
2023-08-28T06:20:41.122Z,12.50
2023-08-28T06:23:09.567Z,12.78
2023-08-28T06:25:37.937Z,13.15
2023-08-28T06:28:06.801Z,13.49
2023-08-28T06:30:34.773Z,13.81
2023-08-28T06:33:03.964Z,13.98
2023-08-28T06:35:33.565Z,14.30
2023-08-28T06:38:03.870Z,14.48
2023-08-28T06:40:34.123Z,14.57
2023-08-28T06:43:05.407Z,14.59
2023-08-28T06:45:35.818Z,14.63
2023-08-28T06:48:06.511Z,14.60
2023-08-28T06:50:36.713Z,14.86
2023-08-28T06:53:06.894Z,15.22
2023-08-28T06:55:38.009Z,15.42
2023-08-28T06:58:08.219Z,15.43
2023-08-28T07:00:39.081Z,15.41
2023-08-28T07:03:10.630Z,15.42
2023-08-28T07:05:41.727Z,15.66
2023-08-28T07:08:11.909Z,15.85
2023-08-28T07:10:40.355Z,15.91
2023-08-28T07:13:08.711Z,15.94
2023-08-28T07:15:55.393Z,15.71
2023-08-28T07:18:25.724Z,15.79
2023-08-28T07:20:56.300Z,16.08
2023-08-28T07:23:26.885Z,16.29
2023-08-28T07:25:58.174Z,16.37
2023-08-28T07:28:28.789Z,16.22
2023-08-28T07:31:01.410Z,16.29
2023-08-28T07:33:31.659Z,16.25
2023-08-28T07:36:01.793Z,15.90
2023-08-28T07:38:31.976Z,15.50
2023-08-28T07:41:02.116Z,15.23
2023-08-28T07:43:32.273Z,15.10
2023-08-28T07:46:02.444Z,15.16
2023-08-28T07:48:32.675Z,15.23
2023-08-28T07:51:03.435Z,15.27
2023-08-28T07:53:31.726Z,15.02
2023-08-28T07:56:00.876Z,14.84
2023-08-28T07:58:28.126Z,14.81
2023-08-28T08:01:01.621Z,14.80
2023-08-28T08:03:32.906Z,14.73
2023-08-28T08:06:03.072Z,14.81
2023-08-28T08:08:33.188Z,14.88
2023-08-28T08:11:01.690Z,14.92
2023-08-28T08:13:30.516Z,15.15
2023-08-28T08:15:58.533Z,15.21
2023-08-28T08:18:26.842Z,15.32
2023-08-28T08:20:55.264Z,15.36
2023-08-28T08:23:24.665Z,15.56
2023-08-28T08:25:57.937Z,15.60
2023-08-28T08:28:31.228Z,15.83
2023-08-28T08:31:01.619Z,16.03
2023-08-28T08:33:31.876Z,16.32
2023-08-28T08:36:02.070Z,16.72
2023-08-28T08:38:32.255Z,16.92
2023-08-28T08:41:02.699Z,16.91
2023-08-28T08:43:33.323Z,17.05
2023-08-28T08:46:09.781Z,17.08
2023-08-28T08:48:43.726Z,17.29
2023-08-28T08:51:21.540Z,17.53
2023-08-28T08:54:20.419Z,17.30
2023-08-28T08:57:04.131Z,17.07
2023-08-28T08:59:34.724Z,16.82
2023-08-28T09:02:05.916Z,16.54
2023-08-28T09:04:36.811Z,16.42
2023-08-28T09:07:08.455Z,16.46
2023-08-28T09:09:40.476Z,16.54
2023-08-28T09:12:10.921Z,16.55
2023-08-28T09:14:42.048Z,16.54
2023-08-28T09:17:12.219Z,16.53
2023-08-28T09:19:46.291Z,16.57
2023-08-28T09:22:16.496Z,16.55
2023-08-28T09:24:55.470Z,16.49
2023-08-28T09:27:25.676Z,16.36
2023-08-28T09:29:55.920Z,16.44
2023-08-28T09:32:29.935Z,16.53
2023-08-28T09:35:00.167Z,16.52
2023-08-28T09:37:30.374Z,16.59
2023-08-28T09:40:00.241Z,16.67
2023-08-28T09:42:31.092Z,16.35
2023-08-28T09:44:58.852Z,16.28
2023-08-28T09:47:29.669Z,16.26
2023-08-28T09:50:00.073Z,16.21
2023-08-28T09:52:30.382Z,16.13
2023-08-28T09:55:07.519Z,16.12
2023-08-28T09:57:37.894Z,16.16
2023-08-28T10:00:09.557Z,16.28
2023-08-28T10:02:41.260Z,16.34
2023-08-28T10:05:15.668Z,16.48
2023-08-28T10:07:53.748Z,16.32
2023-08-28T10:10:26.521Z,16.51
2023-08-28T10:12:58.204Z,16.78
2023-08-28T10:15:31.289Z,17.06
2023-08-28T10:18:12.558Z,16.95
2023-08-28T10:20:46.164Z,16.96
2023-08-28T10:23:21.527Z,17.06
2023-08-28T10:25:56.519Z,17.11
2023-08-28T10:28:29.384Z,17.16
2023-08-28T10:31:00.314Z,17.28
2023-08-28T10:33:35.875Z,17.27
2023-08-28T10:36:11.736Z,16.96
2023-08-28T10:38:57.193Z,16.92
2023-08-28T10:41:33.293Z,17.11
2023-08-28T10:44:05.635Z,17.01
2023-08-28T10:46:36.521Z,16.92
2023-08-28T10:49:09.048Z,17.08
2023-08-28T10:51:38.325Z,17.27
2023-08-28T10:54:10.563Z,17.33
2023-08-28T10:56:40.968Z,17.26
2023-08-28T10:59:28.136Z,17.36
2023-08-28T11:02:03.345Z,17.53
2023-08-28T11:04:37.601Z,17.71
2023-08-28T11:07:43.061Z,17.65
2023-08-28T11:10:22.455Z,17.80
2023-08-28T11:13:02.293Z,17.90
2023-08-28T11:15:41.884Z,17.86
2023-08-28T11:18:31.938Z,18.02
2023-08-28T11:21:07.446Z,18.07
2023-08-28T11:23:43.817Z,18.10
2023-08-28T11:26:17.444Z,18.33
2023-08-28T11:28:51.227Z,18.20
2023-08-28T11:31:21.556Z,18.07
2023-08-28T11:33:51.905Z,18.06
2023-08-28T11:36:23.163Z,18.07
2023-08-28T11:38:56.760Z,18.25
2023-08-28T11:41:27.145Z,18.29
2023-08-28T11:43:57.270Z,18.36
2023-08-28T11:46:28.152Z,18.22
2023-08-28T11:48:58.396Z,18.15
2023-08-28T11:51:28.624Z,18.20
2023-08-28T11:54:00.866Z,18.06
2023-08-28T11:56:35.618Z,18.18
2023-08-28T11:59:06.645Z,17.96
2023-08-28T12:01:38.334Z,18.05
2023-08-28T12:04:09.121Z,18.14
2023-08-28T12:06:42.431Z,18.08
2023-08-28T12:09:14.325Z,18.17
2023-08-28T12:11:45.468Z,18.37
2023-08-28T12:14:18.949Z,18.39
2023-08-28T12:16:50.272Z,18.40
2023-08-28T12:19:23.598Z,18.22
2023-08-28T12:22:06.445Z,17.92
2023-08-28T12:24:47.101Z,17.84
2023-08-28T12:27:28.367Z,17.86
2023-08-28T12:29:59.050Z,17.99
2023-08-28T12:32:29.342Z,18.04
2023-08-28T12:35:13.316Z,18.19
2023-08-28T12:37:43.454Z,18.20
2023-08-28T12:40:13.816Z,18.41
2023-08-28T12:42:42.432Z,18.46
2023-08-28T12:45:12.287Z,18.57
2023-08-28T12:47:43.037Z,18.63
2023-08-28T12:50:11.604Z,18.65
2023-08-28T12:52:42.479Z,18.57
2023-08-28T12:55:12.650Z,18.59
2023-08-28T12:57:42.840Z,18.70
2023-08-28T13:00:13.736Z,18.78
2023-08-28T13:02:42.870Z,18.54
2023-08-28T13:05:12.955Z,18.45
2023-08-28T13:07:43.161Z,18.44
2023-08-28T13:10:13.472Z,18.24
2023-08-28T13:12:43.672Z,18.21
2023-08-28T13:15:13.885Z,18.02
2023-08-28T13:17:45.352Z,17.98
2023-08-28T13:20:16.367Z,18.11
2023-08-28T13:22:47.665Z,18.23
2023-08-28T13:25:18.111Z,18.36
2023-08-28T13:27:48.398Z,18.22
2023-08-28T13:30:18.630Z,18.30
2023-08-28T13:32:49.983Z,18.38
2023-08-28T13:35:20.254Z,18.47
2023-08-28T13:37:50.408Z,18.48
2023-08-28T13:40:20.994Z,18.45
2023-08-28T13:42:51.203Z,18.42
2023-08-28T13:45:21.340Z,18.31
2023-08-28T13:47:51.519Z,18.19
2023-08-28T13:50:21.756Z,18.18
2023-08-28T13:52:52.177Z,18.21
2023-08-28T13:55:23.042Z,18.30
2023-08-28T13:57:50.928Z,18.39
2023-08-28T14:00:20.086Z,18.40
2023-08-28T14:02:47.622Z,18.40
2023-08-28T14:05:16.008Z,18.40
2023-08-28T14:07:44.996Z,18.47
2023-08-28T14:10:13.159Z,18.56
2023-08-28T14:12:41.303Z,18.54
2023-08-28T14:15:10.018Z,18.52
2023-08-28T14:17:38.196Z,18.64
2023-08-28T14:20:11.307Z,18.63
2023-08-28T14:22:41.464Z,18.66
2023-08-28T14:25:14.462Z,18.56
2023-08-28T14:27:54.892Z,18.53
2023-08-28T14:30:27.436Z,18.57
2023-08-28T14:32:57.975Z,18.49
2023-08-28T14:35:28.199Z,18.35
2023-08-28T14:37:56.693Z,18.42
2023-08-28T14:40:40.323Z,18.45
2023-08-28T14:43:14.871Z,18.40
2023-08-28T14:45:45.562Z,18.42
2023-08-28T14:48:15.790Z,18.39
2023-08-28T14:50:45.950Z,18.34
2023-08-28T14:53:16.200Z,18.36
2023-08-28T14:55:53.215Z,18.41
2023-08-28T14:58:24.133Z,18.35
2023-08-28T15:00:56.250Z,18.35
2023-08-28T15:03:26.621Z,18.38
2023-08-28T15:05:56.899Z,18.35
2023-08-28T15:08:27.140Z,18.44
2023-08-28T15:10:57.251Z,18.40
2023-08-28T15:13:25.715Z,18.52
2023-08-28T15:15:55.560Z,18.53
2023-08-28T15:18:25.611Z,18.52
2023-08-28T15:20:54.024Z,18.51
2023-08-28T15:23:22.903Z,18.49
2023-08-28T15:25:50.941Z,18.29
2023-08-28T15:28:19.423Z,18.18
2023-08-28T15:30:52.680Z,18.03
2023-08-28T15:33:22.614Z,17.98
2023-08-28T15:35:52.451Z,17.98
2023-08-28T15:38:22.428Z,17.97
2023-08-28T15:40:50.908Z,17.95
2023-08-28T15:43:19.255Z,17.91
2023-08-28T15:45:53.403Z,17.80
2023-08-28T15:48:23.285Z,17.66
2023-08-28T15:50:53.865Z,17.60
2023-08-28T15:53:24.043Z,17.56
2023-08-28T15:55:55.955Z,17.50
2023-08-28T15:58:27.120Z,17.43
2023-08-28T16:01:01.537Z,17.37
2023-08-28T16:03:31.875Z,17.32
2023-08-28T16:06:05.946Z,17.30
2023-08-28T16:08:36.680Z,17.32
2023-08-28T16:11:06.689Z,17.37
2023-08-28T16:13:36.391Z,17.42
2023-08-28T16:16:06.358Z,17.30
2023-08-28T16:18:36.259Z,17.24
2023-08-28T16:21:07.495Z,17.23
2023-08-28T16:23:38.040Z,17.26
2023-08-28T16:26:07.246Z,17.25
2023-08-28T16:28:37.172Z,17.20
2023-08-28T16:31:11.531Z,17.11
2023-08-28T16:33:41.528Z,17.06
2023-08-28T16:36:09.907Z,17.01
2023-08-28T16:41:14.049Z,16.99
2023-08-28T16:43:44.399Z,16.98
2023-08-28T16:46:14.912Z,16.99
2023-08-28T16:48:45.092Z,16.94
2023-08-28T16:51:15.227Z,16.89
2023-08-28T16:53:45.544Z,16.85
2023-08-28T16:56:15.815Z,16.84
2023-08-28T16:58:45.971Z,16.83
2023-08-28T17:01:16.312Z,16.79
2023-08-28T17:03:46.705Z,16.75
2023-08-28T17:06:15.223Z,16.73
2023-08-28T17:08:43.323Z,16.72
2023-08-28T17:11:11.799Z,16.71
2023-08-28T17:13:40.673Z,16.66
2023-08-28T17:16:08.425Z,16.58
2023-08-28T17:18:38.618Z,16.48
2023-08-28T17:21:08.751Z,16.44
2023-08-28T17:23:38.859Z,16.41
2023-08-28T17:26:09.109Z,16.28
2023-08-28T17:28:39.390Z,16.14
2023-08-28T17:31:11.351Z,16.06
2023-08-28T17:33:41.521Z,15.99
2023-08-28T17:36:11.777Z,15.93
2023-08-28T17:38:41.926Z,15.87
2023-08-28T17:45:37.230Z,15.78
2023-08-28T17:48:08.666Z,15.77
2023-08-28T17:51:25.280Z,15.76
2023-08-28T17:53:55.235Z,15.71
2023-08-28T17:56:25.299Z,15.66
2023-08-28T17:58:57.631Z,15.61
2023-08-28T18:01:25.451Z,15.57
2023-08-28T18:03:55.435Z,15.54
2023-08-28T18:06:25.442Z,15.49
2023-08-28T18:08:55.570Z,15.45
2023-08-28T18:11:25.314Z,15.43
2023-08-28T18:13:55.575Z,15.38
2023-08-28T18:16:25.618Z,15.33
2023-08-28T18:18:56.961Z,15.29
2023-08-28T18:21:25.366Z,15.24
2023-08-28T18:23:53.812Z,15.19
2023-08-28T18:26:22.524Z,15.14
2023-08-28T18:28:52.055Z,15.09
2023-08-28T18:31:22.123Z,15.01
2023-08-28T18:33:53.677Z,14.95
2023-08-28T18:36:22.033Z,14.90
2023-08-28T18:38:51.937Z,14.86
2023-08-28T18:41:23.090Z,14.85
2023-08-28T18:43:53.128Z,14.85
2023-08-28T18:46:23.060Z,14.81
2023-08-28T18:48:52.875Z,14.75
2023-08-28T18:51:25.848Z,14.64
2023-08-28T18:53:55.965Z,14.60
2023-08-28T18:56:26.237Z,14.58
2023-08-28T18:58:56.471Z,14.56
2023-08-28T19:01:26.601Z,14.54
2023-08-28T19:03:56.528Z,14.53
2023-08-28T19:06:26.895Z,14.54
2023-08-28T19:08:57.170Z,14.52
2023-08-28T19:11:27.141Z,14.54
2023-08-28T19:13:57.002Z,14.53
2023-08-28T19:16:26.917Z,14.49
2023-08-28T19:18:56.730Z,14.40
2023-08-28T19:21:26.826Z,14.35
2023-08-28T19:23:57.432Z,14.31
2023-08-28T19:26:25.589Z,14.24
2023-08-28T19:28:53.889Z,14.18
2023-08-28T19:31:24.101Z,14.15
2023-08-28T19:33:53.608Z,14.13
2023-08-28T19:36:22.374Z,14.12
2023-08-28T19:38:50.930Z,14.10
2023-08-28T19:41:21.147Z,14.08
2023-08-28T19:43:51.344Z,14.08
2023-08-28T19:46:21.557Z,14.08
2023-08-28T19:48:51.763Z,14.07
2023-08-28T19:51:23.803Z,14.05
2023-08-28T19:53:54.954Z,14.06
2023-08-28T19:56:25.591Z,14.02
2023-08-28T19:58:55.790Z,14.01
2023-08-28T20:01:26.690Z,13.99
2023-08-28T20:03:56.940Z,13.98
2023-08-28T20:06:27.887Z,13.97
2023-08-28T20:08:58.079Z,13.95
2023-08-28T20:11:28.319Z,13.95
2023-08-28T20:13:58.627Z,13.93
2023-08-28T20:16:28.783Z,13.93
2023-08-28T20:18:58.970Z,13.93
2023-08-28T20:21:30.084Z,13.90
2023-08-28T20:24:00.278Z,13.87
2023-08-28T20:26:28.684Z,13.80
2023-08-28T20:28:57.091Z,13.73
2023-08-28T20:31:25.647Z,13.71
2023-08-28T20:33:55.137Z,13.70
2023-08-28T20:36:26.494Z,13.70
2023-08-28T20:38:56.771Z,13.71
2023-08-28T20:41:27.000Z,13.72
2023-08-28T20:43:57.160Z,13.71
2023-08-28T20:46:27.353Z,13.68
2023-08-28T20:48:59.950Z,13.66
2023-08-28T20:51:30.439Z,13.66
2023-08-28T20:54:01.386Z,13.69
2023-08-28T20:56:31.657Z,13.70
2023-08-28T20:59:01.895Z,13.64
2023-08-28T21:01:32.123Z,13.62
2023-08-28T21:04:03.421Z,13.59
2023-08-28T21:06:33.640Z,13.58
2023-08-28T21:09:05.112Z,13.59
2023-08-28T21:11:36.569Z,13.61
2023-08-28T21:14:06.869Z,13.69
2023-08-28T21:16:37.032Z,13.57
2023-08-28T21:19:07.502Z,13.47
2023-08-28T21:21:37.767Z,13.41
2023-08-28T21:24:08.546Z,13.38
2023-08-28T21:26:36.433Z,13.38
2023-08-28T21:29:05.938Z,13.38
2023-08-28T21:31:33.194Z,13.39
2023-08-28T21:34:01.684Z,13.37
2023-08-28T21:36:30.439Z,13.35
2023-08-28T21:38:58.588Z,13.37
2023-08-28T21:41:26.874Z,13.36
2023-08-28T21:43:55.256Z,13.37
2023-08-28T21:46:25.511Z,13.41
2023-08-28T21:48:55.753Z,13.39
2023-08-28T21:51:25.901Z,13.36
2023-08-28T21:53:56.107Z,13.38
2023-08-28T21:56:26.289Z,13.37
2023-08-28T21:58:56.444Z,13.38
2023-08-28T22:01:26.663Z,13.35
2023-08-28T22:03:57.031Z,13.35
2023-08-28T22:06:25.912Z,13.35
2023-08-28T22:08:54.220Z,13.36
2023-08-28T22:11:22.365Z,13.36
2023-08-28T22:13:51.578Z,13.36
2023-08-28T22:16:19.258Z,13.33
2023-08-28T22:18:47.601Z,13.32
2023-08-28T22:21:17.101Z,13.31
2023-08-28T22:23:44.987Z,13.31
2023-08-28T22:26:12.972Z,13.32
2023-08-28T22:28:41.389Z,13.34
2023-08-28T22:31:09.781Z,13.36
2023-08-28T22:33:38.264Z,13.37
2023-08-28T22:36:07.048Z,13.37
2023-08-28T22:38:35.076Z,13.40
2023-08-28T22:41:05.856Z,13.35
2023-08-28T22:43:34.892Z,13.34
2023-08-28T22:46:03.369Z,13.34
2023-08-28T22:48:31.803Z,13.34
2023-08-28T22:51:01.495Z,13.34
2023-08-28T22:53:31.628Z,13.35
2023-08-28T22:56:01.859Z,13.37
2023-08-28T22:58:32.023Z,13.37
2023-08-28T23:01:02.193Z,13.33
2023-08-28T23:03:32.428Z,13.32
2023-08-28T23:06:02.619Z,13.24
2023-08-28T23:08:33.090Z,13.20
2023-08-28T23:11:03.329Z,13.19
2023-08-28T23:13:33.637Z,13.16
2023-08-28T23:16:04.784Z,13.16
2023-08-28T23:18:35.482Z,13.17
2023-08-28T23:21:05.716Z,13.16
2023-08-28T23:23:35.862Z,13.13
2023-08-28T23:26:06.238Z,13.10
2023-08-28T23:28:36.411Z,13.11
2023-08-28T23:31:08.048Z,13.12
2023-08-28T23:33:38.869Z,13.13
2023-08-28T23:36:09.767Z,13.10
2023-08-28T23:38:37.657Z,13.11
2023-08-28T23:41:07.389Z,13.12
2023-08-28T23:43:34.841Z,13.14
2023-08-28T23:46:02.043Z,13.18
2023-08-28T23:48:30.540Z,13.15
2023-08-28T23:50:58.915Z,13.10
2023-08-28T23:53:27.261Z,13.08
2023-08-28T23:55:55.828Z,13.07
2023-08-28T23:58:24.147Z,13.08
